OAL8NJ LGAV-LGNX
Flight info
| Callsign | OAL8NJ |
|---|---|
| Flight time | 0h 28m |
| Altitude | 15000 |
| Route | N0311F150 KEA L52 RAPOS |
| Aircraft | DH8D/M-SDE2E3FGRY/H |
Departure
| Time | 2026-04-26 16:14 |
|---|---|
| Airport | Athens Eleftherios Venizelos International Airport (LGAV) |
Arrival
| Time | 2026-04-26 16:42 |
|---|---|
| Airport | Naxos Island National Airport (LGNX) |
| Time | Latitude | Longitude | Altitude | Speed | Heading |
|---|---|---|---|---|---|
| 2026-04-26 15:30 | 37.94022 | 23.95293 | 290 ft | 0 kts | 37° |
| 2026-04-26 15:58 | 37.94022 | 23.95294 | 290 ft | 0 kts | 37° |
| 2026-04-26 15:58 | 37.94015 | 23.95287 | 290 ft | 2 kts | 37° |
| 2026-04-26 15:58 | 37.94003 | 23.95275 | 289 ft | 2 kts | 38° |
| 2026-04-26 15:59 | 37.93993 | 23.95262 | 289 ft | 2 kts | 54° |
| 2026-04-26 15:59 | 37.93988 | 23.95253 | 289 ft | 0 kts | 63° |
| 2026-04-26 16:01 | 37.93988 | 23.95251 | 289 ft | 1 kts | 65° |
| 2026-04-26 16:01 | 37.93983 | 23.95234 | 289 ft | 2 kts | 79° |
| 2026-04-26 16:01 | 37.93982 | 23.95216 | 289 ft | 2 kts | 95° |
| 2026-04-26 16:02 | 37.93985 | 23.95197 | 289 ft | 2 kts | 110° |
| 2026-04-26 16:02 | 37.93992 | 23.95181 | 289 ft | 1 kts | 125° |
| 2026-04-26 16:02 | 37.93994 | 23.95178 | 289 ft | 0 kts | 127° |
| 2026-04-26 16:07 | 37.93979 | 23.95203 | 289 ft | 9 kts | 127° |
| 2026-04-26 16:08 | 37.93931 | 23.95283 | 289 ft | 11 kts | 127° |
| 2026-04-26 16:08 | 37.93901 | 23.95333 | 289 ft | 11 kts | 127° |
| 2026-04-26 16:08 | 37.93832 | 23.95426 | 289 ft | 10 kts | 165° |
| 2026-04-26 16:08 | 37.93772 | 23.95396 | 289 ft | 9 kts | 217° |
| 2026-04-26 16:09 | 37.93715 | 23.95342 | 289 ft | 11 kts | 217° |
| 2026-04-26 16:09 | 37.93639 | 23.95270 | 289 ft | 15 kts | 217° |
| 2026-04-26 16:09 | 37.93546 | 23.95183 | 289 ft | 17 kts | 214° |
| 2026-04-26 16:09 | 37.93441 | 23.95083 | 289 ft | 19 kts | 217° |
| 2026-04-26 16:10 | 37.93334 | 23.94982 | 290 ft | 17 kts | 217° |
| 2026-04-26 16:10 | 37.93236 | 23.94888 | 290 ft | 18 kts | 217° |
| 2026-04-26 16:10 | 37.93133 | 23.94789 | 290 ft | 18 kts | 217° |
| 2026-04-26 16:10 | 37.93027 | 23.94688 | 290 ft | 19 kts | 217° |
| 2026-04-26 16:11 | 37.92918 | 23.94584 | 290 ft | 19 kts | 217° |
| 2026-04-26 16:11 | 37.92805 | 23.94479 | 290 ft | 20 kts | 216° |
| 2026-04-26 16:11 | 37.92699 | 23.94379 | 290 ft | 17 kts | 217° |
| 2026-04-26 16:11 | 37.92614 | 23.94299 | 290 ft | 10 kts | 216° |
| 2026-04-26 16:12 | 37.92553 | 23.94298 | 290 ft | 9 kts | 140° |
| 2026-04-26 16:12 | 37.92517 | 23.94357 | 290 ft | 7 kts | 126° |
| 2026-04-26 16:12 | 37.92490 | 23.94457 | 290 ft | 5 kts | 45° |
| 2026-04-26 16:13 | 37.92518 | 23.94484 | 290 ft | 5 kts | 37° |
| 2026-04-26 16:13 | 37.92679 | 23.94639 | 290 ft | 69 kts | 38° |
| 2026-04-26 16:13 | 37.93305 | 23.95230 | 290 ft | 149 kts | 37° |
| 2026-04-26 16:13 | 37.94213 | 23.96109 | 562 ft | 174 kts | 39° |
| 2026-04-26 16:14 | 37.95188 | 23.97081 | 1306 ft | 181 kts | 36° |
| 2026-04-26 16:14 | 37.96223 | 23.98037 | 1940 ft | 195 kts | 35° |
| 2026-04-26 16:14 | 37.98511 | 24.00259 | 2950 ft | 217 kts | 38° |
| 2026-04-26 16:15 | 37.99662 | 24.01431 | 3684 ft | 215 kts | 37° |
| 2026-04-26 16:15 | 38.00866 | 24.02638 | 4217 ft | 224 kts | 36° |
| 2026-04-26 16:15 | 38.02081 | 24.03818 | 4938 ft | 222 kts | 35° |
| 2026-04-26 16:16 | 38.04538 | 24.06191 | 6256 ft | 224 kts | 34° |
| 2026-04-26 16:16 | 38.05783 | 24.07386 | 6828 ft | 230 kts | 34° |
| 2026-04-26 16:16 | 38.07051 | 24.08600 | 7553 ft | 228 kts | 34° |
| 2026-04-26 16:16 | 38.08301 | 24.09807 | 8166 ft | 230 kts | 36° |
| 2026-04-26 16:17 | 38.09255 | 24.11462 | 8710 ft | 240 kts | 71° |
| 2026-04-26 16:17 | 38.09177 | 24.13591 | 9237 ft | 250 kts | 103° |
| 2026-04-26 16:17 | 38.08622 | 24.15674 | 9807 ft | 254 kts | 107° |
| 2026-04-26 16:17 | 38.08037 | 24.17788 | 10417 ft | 255 kts | 107° |
| 2026-04-26 16:18 | 38.07258 | 24.19778 | 10968 ft | 260 kts | 129° |
| 2026-04-26 16:18 | 38.03893 | 24.21345 | 11965 ft | 266 kts | 172° |
| 2026-04-26 16:19 | 38.00190 | 24.21989 | 13007 ft | 273 kts | 172° |
| 2026-04-26 16:19 | 37.98290 | 24.22318 | 13573 ft | 273 kts | 172° |
| 2026-04-26 16:19 | 37.95093 | 24.22874 | 14182 ft | 286 kts | 172° |
| 2026-04-26 16:20 | 37.92403 | 24.23345 | 14475 ft | 301 kts | 172° |
| 2026-04-26 16:20 | 37.88132 | 24.24093 | 14862 ft | 318 kts | 172° |
| 2026-04-26 16:20 | 37.85930 | 24.24478 | 14966 ft | 327 kts | 172° |
| 2026-04-26 16:21 | 37.83664 | 24.24876 | 14981 ft | 329 kts | 172° |
| 2026-04-26 16:21 | 37.81369 | 24.25280 | 14987 ft | 331 kts | 172° |
| 2026-04-26 16:21 | 37.79102 | 24.25678 | 14984 ft | 331 kts | 172° |
| 2026-04-26 16:21 | 37.76822 | 24.26077 | 14981 ft | 332 kts | 172° |
| 2026-04-26 16:22 | 37.74506 | 24.26483 | 14976 ft | 333 kts | 172° |
| 2026-04-26 16:22 | 37.72218 | 24.26883 | 14971 ft | 334 kts | 172° |
| 2026-04-26 16:22 | 37.69907 | 24.27288 | 14961 ft | 335 kts | 172° |
| 2026-04-26 16:22 | 37.67611 | 24.27689 | 14956 ft | 335 kts | 172° |
| 2026-04-26 16:23 | 37.65290 | 24.28094 | 14952 ft | 335 kts | 172° |
| 2026-04-26 16:23 | 37.62965 | 24.28500 | 14950 ft | 335 kts | 172° |
| 2026-04-26 16:23 | 37.60677 | 24.28898 | 14957 ft | 335 kts | 172° |
| 2026-04-26 16:23 | 37.58354 | 24.29310 | 14947 ft | 336 kts | 171° |
| 2026-04-26 16:24 | 37.56158 | 24.30238 | 14940 ft | 332 kts | 147° |
| 2026-04-26 16:24 | 37.54541 | 24.32215 | 14971 ft | 326 kts | 123° |
| 2026-04-26 16:24 | 37.53290 | 24.34596 | 14952 ft | 326 kts | 120° |
| 2026-04-26 16:24 | 37.52061 | 24.37026 | 14945 ft | 326 kts | 119° |
| 2026-04-26 16:25 | 37.50857 | 24.39426 | 14959 ft | 326 kts | 119° |
| 2026-04-26 16:25 | 37.49641 | 24.41852 | 14959 ft | 326 kts | 119° |
| 2026-04-26 16:25 | 37.48441 | 24.44245 | 14956 ft | 326 kts | 119° |
| 2026-04-26 16:25 | 37.47233 | 24.46655 | 14956 ft | 326 kts | 119° |
| 2026-04-26 16:26 | 37.46015 | 24.49082 | 14953 ft | 327 kts | 119° |
| 2026-04-26 16:26 | 37.45205 | 24.50696 | 14957 ft | 327 kts | 119° |
| 2026-04-26 16:26 | 37.43594 | 24.53903 | 14961 ft | 327 kts | 119° |
| 2026-04-26 16:26 | 37.42371 | 24.56338 | 14958 ft | 327 kts | 119° |
| 2026-04-26 16:27 | 37.41160 | 24.58746 | 14957 ft | 327 kts | 119° |
| 2026-04-26 16:27 | 37.39939 | 24.61172 | 14957 ft | 327 kts | 119° |
| 2026-04-26 16:27 | 37.38740 | 24.63554 | 14950 ft | 327 kts | 119° |
| 2026-04-26 16:27 | 37.37521 | 24.65973 | 14669 ft | 325 kts | 119° |
| 2026-04-26 16:28 | 37.36319 | 24.68361 | 14268 ft | 318 kts | 119° |
| 2026-04-26 16:28 | 37.35157 | 24.70670 | 13844 ft | 313 kts | 120° |
| 2026-04-26 16:28 | 37.33995 | 24.72978 | 13431 ft | 309 kts | 120° |
| 2026-04-26 16:28 | 37.32860 | 24.75230 | 13017 ft | 306 kts | 120° |
| 2026-04-26 16:29 | 37.31725 | 24.77480 | 12587 ft | 303 kts | 120° |
| 2026-04-26 16:29 | 37.30615 | 24.79678 | 12167 ft | 299 kts | 120° |
| 2026-04-26 16:29 | 37.29499 | 24.81886 | 11765 ft | 296 kts | 120° |
| 2026-04-26 16:29 | 37.28407 | 24.84045 | 11359 ft | 294 kts | 120° |
| 2026-04-26 16:30 | 37.27307 | 24.86217 | 10934 ft | 292 kts | 121° |
| 2026-04-26 16:30 | 37.26228 | 24.88346 | 10551 ft | 289 kts | 121° |
| 2026-04-26 16:30 | 37.25160 | 24.90453 | 10155 ft | 286 kts | 121° |
| 2026-04-26 16:30 | 37.24099 | 24.92545 | 9784 ft | 284 kts | 121° |
| 2026-04-26 16:31 | 37.23034 | 24.94641 | 9395 ft | 283 kts | 121° |
| 2026-04-26 16:31 | 37.21989 | 24.96698 | 9003 ft | 281 kts | 121° |
| 2026-04-26 16:31 | 37.20935 | 24.98771 | 8606 ft | 280 kts | 122° |
| 2026-04-26 16:31 | 37.19902 | 25.00800 | 8199 ft | 278 kts | 122° |
| 2026-04-26 16:32 | 37.18856 | 25.02856 | 7836 ft | 276 kts | 122° |
| 2026-04-26 16:32 | 37.18173 | 25.04195 | 7594 ft | 275 kts | 122° |
| 2026-04-26 16:32 | 37.16805 | 25.06879 | 7093 ft | 274 kts | 122° |
| 2026-04-26 16:32 | 37.15769 | 25.08909 | 6709 ft | 274 kts | 122° |
| 2026-04-26 16:33 | 37.14745 | 25.10915 | 6330 ft | 273 kts | 121° |
| 2026-04-26 16:33 | 37.13730 | 25.12918 | 5953 ft | 272 kts | 120° |
| 2026-04-26 16:33 | 37.13162 | 25.15107 | 5731 ft | 258 kts | 88° |
| 2026-04-26 16:33 | 37.13660 | 25.17149 | 5719 ft | 246 kts | 52° |
| 2026-04-26 16:34 | 37.14859 | 25.18629 | 5734 ft | 241 kts | 43° |
| 2026-04-26 16:34 | 37.15707 | 25.20451 | 5677 ft | 248 kts | 72° |
| 2026-04-26 16:34 | 37.15736 | 25.22652 | 5297 ft | 264 kts | 102° |
| 2026-04-26 16:34 | 37.14781 | 25.24565 | 4862 ft | 265 kts | 139° |
| 2026-04-26 16:35 | 37.13187 | 25.25615 | 4439 ft | 258 kts | 158° |
| 2026-04-26 16:35 | 37.11725 | 25.26860 | 4000 ft | 250 kts | 130° |
| 2026-04-26 16:35 | 37.10858 | 25.28680 | 3655 ft | 239 kts | 113° |
| 2026-04-26 16:35 | 37.10136 | 25.30510 | 3312 ft | 232 kts | 114° |
| 2026-04-26 16:36 | 37.09420 | 25.32291 | 2963 ft | 225 kts | 114° |
| 2026-04-26 16:36 | 37.08725 | 25.34008 | 2617 ft | 219 kts | 114° |
| 2026-04-26 16:36 | 37.08044 | 25.35680 | 2296 ft | 213 kts | 114° |
| 2026-04-26 16:36 | 37.07378 | 25.37292 | 2103 ft | 200 kts | 114° |
| 2026-04-26 16:37 | 37.06657 | 25.38674 | 2007 ft | 184 kts | 136° |
| 2026-04-26 16:37 | 37.05488 | 25.39242 | 2000 ft | 185 kts | 180° |
| 2026-04-26 16:37 | 37.04192 | 25.39125 | 2012 ft | 188 kts | 186° |
| 2026-04-26 16:37 | 37.03330 | 25.39045 | 2024 ft | 187 kts | 186° |
| 2026-04-26 16:38 | 37.01581 | 25.38880 | 2010 ft | 190 kts | 186° |
| 2026-04-26 16:38 | 37.00245 | 25.38755 | 1998 ft | 193 kts | 186° |
| 2026-04-26 16:38 | 36.98936 | 25.38639 | 1982 ft | 183 kts | 186° |
| 2026-04-26 16:38 | 36.97803 | 25.38182 | 1961 ft | 162 kts | 224° |
| 2026-04-26 16:39 | 36.97333 | 25.37062 | 1967 ft | 140 kts | 276° |
| 2026-04-26 16:39 | 36.97731 | 25.36066 | 1975 ft | 127 kts | 330° |
| 2026-04-26 16:39 | 36.98574 | 25.35978 | 1989 ft | 126 kts | 16° |
| 2026-04-26 16:39 | 36.99423 | 25.36305 | 2034 ft | 130 kts | 14° |
| 2026-04-26 16:40 | 37.00287 | 25.36609 | 1912 ft | 120 kts | 8° |
| 2026-04-26 16:40 | 37.01055 | 25.36708 | 1672 ft | 109 kts | 2° |
| 2026-04-26 16:40 | 37.01823 | 25.36775 | 1692 ft | 111 kts | 6° |
| 2026-04-26 16:40 | 37.02615 | 25.36852 | 1634 ft | 116 kts | 1° |
| 2026-04-26 16:41 | 37.03426 | 25.36824 | 1381 ft | 116 kts | 354° |
| 2026-04-26 16:41 | 37.04234 | 25.36733 | 987 ft | 117 kts | 357° |
| 2026-04-26 16:41 | 37.05017 | 25.36727 | 638 ft | 112 kts | 2° |
| 2026-04-26 16:41 | 37.05817 | 25.36767 | 496 ft | 118 kts | 1° |
| 2026-04-26 16:42 | 37.06644 | 25.36783 | 268 ft | 119 kts | 2° |
| 2026-04-26 16:42 | 37.07459 | 25.36802 | 91 ft | 115 kts | 1° |
| 2026-04-26 16:42 | 37.08211 | 25.36813 | 27 ft | 89 kts | 4° |
| 2026-04-26 16:42 | 37.08453 | 25.36823 | 29 ft | 4 kts | 1° |
| 2026-04-26 16:43 | 37.08488 | 25.36831 | 29 ft | 5 kts | 18° |
| 2026-04-26 16:43 | 37.08506 | 25.36827 | 30 ft | 1 kts | 274° |
| 2026-04-26 16:43 | 37.08464 | 25.36820 | 29 ft | 12 kts | 179° |
| 2026-04-26 16:43 | 37.08345 | 25.36816 | 29 ft | 18 kts | 182° |
| 2026-04-26 16:44 | 37.08224 | 25.36816 | 27 ft | 11 kts | 180° |
| 2026-04-26 16:44 | 37.08139 | 25.36813 | 25 ft | 5 kts | 179° |
| 2026-04-26 16:44 | 37.08118 | 25.36848 | 25 ft | 5 kts | 89° |
| 2026-04-26 16:44 | 37.08119 | 25.36894 | 26 ft | 4 kts | 88° |
| 2026-04-26 16:45 | 37.08115 | 25.36921 | 27 ft | 1 kts | 123° |
| 2026-04-26 16:45 | 37.08112 | 25.36923 | 27 ft | 0 kts | 146° |
| 2026-04-26 16:45 | 37.08099 | 25.36927 | 27 ft | 4 kts | 178° |
| 2026-04-26 16:45 | 37.08085 | 25.36910 | 27 ft | 0 kts | 293° |